createdAt,value
2023-03-15T00:01:18.657Z,48.00
2023-03-15T00:03:48.261Z,41.10
2023-03-15T00:06:17.114Z,50.20
2023-03-15T00:08:47.782Z,42.40
2023-03-15T00:11:16.961Z,41.30
2023-03-15T00:13:46.486Z,49.40
2023-03-15T00:16:17.968Z,40.90
2023-03-15T00:18:47.365Z,47.00
2023-03-15T00:21:15.873Z,36.70
2023-03-15T00:23:45.182Z,38.00
2023-03-15T00:26:14.065Z,39.30
2023-03-15T00:28:42.218Z,34.70
2023-03-15T00:31:22.387Z,29.80
2023-03-15T00:33:56.725Z,33.40
2023-03-15T00:36:25.784Z,31.80
2023-03-15T00:38:56.434Z,37.90
2023-03-15T00:41:25.436Z,38.40
2023-03-15T00:43:54.074Z,37.50
2023-03-15T00:46:22.227Z,36.80
2023-03-15T00:48:52.009Z,36.60
2023-03-15T00:51:22.521Z,41.90
2023-03-15T00:53:53.351Z,31.40
2023-03-15T00:56:24.120Z,30.40
2023-03-15T00:58:53.188Z,25.00
2023-03-15T01:01:27.114Z,27.10
2023-03-15T01:03:56.631Z,22.20
2023-03-15T01:06:28.536Z,26.00
2023-03-15T01:08:57.626Z,34.20
2023-03-15T01:11:28.348Z,34.50
2023-03-15T01:13:59.731Z,36.10
2023-03-15T01:16:29.916Z,31.30
2023-03-15T01:18:57.934Z,33.80
2023-03-15T01:21:27.689Z,36.40
2023-03-15T01:23:56.086Z,34.30
2023-03-15T01:26:26.272Z,36.60
2023-03-15T01:28:55.317Z,29.00
2023-03-15T01:31:27.009Z,24.40
2023-03-15T01:33:56.930Z,27.20
2023-03-15T01:36:25.897Z,25.90
2023-03-15T01:38:55.062Z,20.40
2023-03-15T01:41:29.118Z,29.00
2023-03-15T01:43:57.686Z,27.50
2023-03-15T01:46:35.996Z,23.80
2023-03-15T01:49:27.312Z,23.70
2023-03-15T01:52:02.146Z,27.10
2023-03-15T01:54:46.300Z,23.10
2023-03-15T01:57:31.176Z,19.50
2023-03-15T02:00:11.414Z,18.00
2023-03-15T02:03:14.585Z,21.70
2023-03-15T02:05:48.297Z,20.30
2023-03-15T02:08:29.981Z,21.80
2023-03-15T02:10:58.883Z,23.80
2023-03-15T02:13:30.734Z,22.90
2023-03-15T02:16:00.522Z,21.60
2023-03-15T02:18:37.425Z,24.20
2023-03-15T02:21:11.553Z,22.70
2023-03-15T02:23:40.556Z,20.20
2023-03-15T02:26:27.199Z,25.60
2023-03-15T02:28:56.216Z,25.20
2023-03-15T02:31:24.448Z,22.90
2023-03-15T02:33:56.957Z,26.90
2023-03-15T02:36:28.501Z,20.90
2023-03-15T02:38:57.312Z,23.60
2023-03-15T02:41:34.113Z,22.40
2023-03-15T02:44:08.778Z,21.50
2023-03-15T02:46:38.532Z,20.10
2023-03-15T02:49:08.532Z,21.40
2023-03-15T02:51:36.501Z,22.00
2023-03-15T02:54:04.511Z,21.10
2023-03-15T02:56:34.028Z,20.50
2023-03-15T02:59:02.780Z,23.80
2023-03-15T03:01:31.749Z,20.30
2023-03-15T03:03:59.955Z,26.00
2023-03-15T03:06:28.069Z,23.50
2023-03-15T03:08:56.652Z,21.20
2023-03-15T03:11:25.399Z,22.60
2023-03-15T03:13:58.578Z,25.00
2023-03-15T03:16:27.859Z,26.30
2023-03-15T03:18:55.932Z,28.50
2023-03-15T03:21:24.225Z,23.70
2023-03-15T03:23:54.826Z,24.10
2023-03-15T03:26:27.979Z,27.10
2023-03-15T03:28:57.592Z,25.30
2023-03-15T03:31:27.931Z,18.50
2023-03-15T03:33:57.394Z,21.30
2023-03-15T03:36:26.516Z,23.90
2023-03-15T03:38:55.041Z,20.00
2023-03-15T03:41:24.805Z,23.80
2023-03-15T03:43:54.042Z,22.70
2023-03-15T03:46:23.168Z,26.10
2023-03-15T03:48:53.283Z,24.50
2023-03-15T03:51:23.128Z,24.00
2023-03-15T03:53:51.235Z,23.40
2023-03-15T03:56:19.327Z,20.90
2023-03-15T03:58:48.549Z,24.70
2023-03-15T04:01:22.275Z,26.00
2023-03-15T04:03:52.604Z,24.70
2023-03-15T04:06:23.079Z,28.10
2023-03-15T04:08:51.179Z,29.90
2023-03-15T04:11:28.988Z,25.70
2023-03-15T04:14:00.621Z,24.00
2023-03-15T04:16:29.169Z,25.40
2023-03-15T04:19:11.592Z,23.00
2023-03-15T04:21:39.826Z,22.10
2023-03-15T04:24:19.336Z,23.60
2023-03-15T04:27:14.803Z,27.10
2023-03-15T04:30:05.843Z,21.40
2023-03-15T04:32:40.031Z,26.50
2023-03-15T04:35:42.631Z,22.90
2023-03-15T04:38:35.677Z,21.40
2023-03-15T04:41:28.610Z,22.20
2023-03-15T04:44:16.518Z,19.80
2023-03-15T04:46:58.472Z,24.30
2023-03-15T04:49:55.101Z,23.70
2023-03-15T04:52:47.954Z,22.40
2023-03-15T04:55:34.330Z,19.70
2023-03-15T04:58:32.085Z,20.10
2023-03-15T05:01:19.119Z,15.70
2023-03-15T05:04:08.294Z,21.40
2023-03-15T05:06:57.183Z,20.70
2023-03-15T05:09:46.344Z,23.50
2023-03-15T05:12:35.207Z,21.90
2023-03-15T05:15:21.634Z,25.10
2023-03-15T05:18:09.748Z,21.20
2023-03-15T05:20:51.696Z,24.90
2023-03-15T05:23:19.732Z,21.30
2023-03-15T05:26:14.986Z,25.60
2023-03-15T05:29:09.284Z,21.00
2023-03-15T05:31:50.278Z,19.30
2023-03-15T05:34:29.707Z,24.00
2023-03-15T05:37:18.319Z,19.40
2023-03-15T05:40:15.545Z,19.30
2023-03-15T05:45:24.668Z,23.00
2023-03-15T05:48:11.488Z,25.60
2023-03-15T05:51:13.385Z,19.50
2023-03-15T05:54:05.388Z,19.80
2023-03-15T05:56:47.826Z,25.40
2023-03-15T05:59:36.468Z,27.50
2023-03-15T06:02:44.640Z,23.70
2023-03-15T06:05:32.948Z,26.40
2023-03-15T06:08:05.472Z,30.90
2023-03-15T06:10:33.968Z,33.10
2023-03-15T06:13:06.135Z,27.40
2023-03-15T06:15:34.483Z,29.20
2023-03-15T06:18:02.959Z,24.00
2023-03-15T06:20:32.519Z,24.70
2023-03-15T06:23:05.688Z,22.50
2023-03-15T06:25:41.303Z,28.80
2023-03-15T06:28:09.355Z,26.00
2023-03-15T06:30:45.041Z,25.50
2023-03-15T06:33:13.341Z,29.40
2023-03-15T06:35:42.277Z,25.10
2023-03-15T06:38:14.776Z,30.90
2023-03-15T06:40:44.173Z,22.90
2023-03-15T06:43:18.718Z,19.10
2023-03-15T06:45:49.460Z,23.00
2023-03-15T06:48:21.179Z,22.20
2023-03-15T06:50:54.912Z,21.00
2023-03-15T06:53:26.846Z,18.80
2023-03-15T06:55:55.558Z,16.00
2023-03-15T06:58:23.742Z,20.20
2023-03-15T07:00:52.472Z,20.00
2023-03-15T07:03:22.404Z,24.60
2023-03-15T07:05:54.471Z,20.80
2023-03-15T07:08:24.153Z,26.20
2023-03-15T07:10:52.589Z,24.60
2023-03-15T07:13:20.849Z,20.20
2023-03-15T07:15:54.722Z,27.80
2023-03-15T07:18:25.776Z,20.00
2023-03-15T07:21:00.377Z,24.80
2023-03-15T07:23:30.592Z,25.50
2023-03-15T07:26:05.731Z,21.40
2023-03-15T07:28:33.986Z,21.10
2023-03-15T07:31:05.937Z,27.80
2023-03-15T07:33:36.734Z,27.60
2023-03-15T07:36:09.817Z,27.80
2023-03-15T07:38:40.795Z,26.10
2023-03-15T07:41:12.903Z,27.90
2023-03-15T07:43:46.238Z,24.00
2023-03-15T07:46:19.871Z,34.00
2023-03-15T07:48:49.348Z,23.50
2023-03-15T07:51:17.515Z,34.30
2023-03-15T07:53:45.782Z,29.10
2023-03-15T07:56:14.140Z,31.00
2023-03-15T07:58:43.256Z,30.10
2023-03-15T08:01:11.604Z,23.50
2023-03-15T08:03:40.897Z,29.30
2023-03-15T08:06:10.011Z,25.10
2023-03-15T08:08:38.093Z,23.60
2023-03-15T08:11:09.271Z,24.00
2023-03-15T08:13:37.345Z,28.00
2023-03-15T08:16:05.636Z,24.80
2023-03-15T08:18:33.842Z,21.00
2023-03-15T08:21:04.343Z,24.20
2023-03-15T08:23:35.214Z,27.50
2023-03-15T08:26:05.488Z,25.80
2023-03-15T08:28:36.425Z,25.20
2023-03-15T08:31:09.729Z,21.30
2023-03-15T08:33:37.795Z,29.50
2023-03-15T08:36:06.684Z,26.60
2023-03-15T08:38:34.868Z,21.90
2023-03-15T08:41:03.645Z,21.60
2023-03-15T08:43:31.790Z,16.00
2023-03-15T08:46:03.423Z,17.70
2023-03-15T08:48:38.792Z,26.40
2023-03-15T08:51:09.037Z,25.40
2023-03-15T08:53:37.842Z,26.30
2023-03-15T08:56:06.258Z,28.50
2023-03-15T08:58:34.791Z,25.00
2023-03-15T09:01:05.061Z,26.80
2023-03-15T09:03:33.333Z,33.70
2023-03-15T09:06:02.217Z,20.20
2023-03-15T09:08:30.355Z,32.90
2023-03-15T09:11:00.012Z,21.80
2023-03-15T09:13:30.638Z,23.80
2023-03-15T09:15:59.921Z,25.40
2023-03-15T09:18:29.078Z,25.10
2023-03-15T09:20:59.380Z,25.80
2023-03-15T09:23:27.574Z,27.50
2023-03-15T09:25:55.947Z,28.60
2023-03-15T09:28:25.627Z,19.20
2023-03-15T09:30:54.776Z,27.60
2023-03-15T09:33:23.108Z,30.00
2023-03-15T09:35:52.541Z,27.00
2023-03-15T09:38:23.189Z,27.90
2023-03-15T09:40:57.547Z,28.10
2023-03-15T09:43:48.590Z,25.00
2023-03-15T09:46:46.516Z,30.90
2023-03-15T09:49:23.121Z,43.20
2023-03-15T09:52:09.794Z,33.80
2023-03-15T09:54:56.573Z,26.40
2023-03-15T09:57:35.626Z,34.10
2023-03-15T10:00:12.877Z,23.40
2023-03-15T10:02:53.457Z,19.60
2023-03-15T10:05:26.276Z,21.60
2023-03-15T10:07:55.848Z,21.40
2023-03-15T10:10:54.671Z,24.50
2023-03-15T10:13:37.392Z,15.90
2023-03-15T10:16:35.591Z,19.90
2023-03-15T10:19:10.662Z,20.20
2023-03-15T10:21:59.334Z,41.10
2023-03-15T10:24:48.736Z,19.60
2023-03-15T10:27:28.490Z,17.20
2023-03-15T10:29:59.269Z,14.50
2023-03-15T10:32:34.622Z,15.90
2023-03-15T10:35:06.800Z,17.50
2023-03-15T10:37:35.781Z,25.60
2023-03-15T10:40:08.019Z,27.80
2023-03-15T11:24:49.589Z,19.30
2023-03-15T11:27:21.408Z,18.60
2023-03-15T11:29:56.908Z,17.10
2023-03-15T11:32:36.401Z,19.30
2023-03-15T11:35:12.832Z,23.10
2023-03-15T11:37:58.552Z,17.90
2023-03-15T11:40:44.611Z,16.70
2023-03-15T11:43:21.889Z,18.50
2023-03-15T11:46:00.719Z,16.20
2023-03-15T11:48:49.992Z,20.50
2023-03-15T11:51:19.267Z,22.70
2023-03-15T11:54:05.673Z,27.10
2023-03-15T11:56:49.058Z,18.00
2023-03-15T11:59:23.978Z,20.90
2023-03-15T12:01:56.001Z,13.10
2023-03-15T12:04:33.680Z,12.90
2023-03-15T12:07:13.029Z,14.00
2023-03-15T12:10:24.240Z,10.10
2023-03-15T12:13:06.934Z,15.80
2023-03-15T12:15:38.788Z,21.00
2023-03-15T12:18:15.524Z,22.80
2023-03-15T12:20:54.467Z,13.90
2023-03-15T12:23:34.768Z,17.00
2023-03-15T12:26:22.363Z,17.10
2023-03-15T12:29:04.136Z,12.50
2023-03-15T12:32:16.691Z,17.00
2023-03-15T12:35:22.658Z,23.40
2023-03-15T12:38:24.757Z,17.40
2023-03-15T12:40:59.163Z,13.90
2023-03-15T12:43:43.448Z,13.30
2023-03-15T12:46:45.331Z,11.40
2023-03-15T12:49:29.661Z,12.60
2023-03-15T12:52:08.903Z,14.10
2023-03-15T12:54:50.531Z,16.60
2023-03-15T12:57:24.983Z,12.20
2023-03-15T12:59:59.112Z,15.00
2023-03-15T13:02:51.940Z,15.00
2023-03-15T13:05:26.257Z,19.00
2023-03-15T13:08:23.130Z,17.90
2023-03-15T13:11:06.754Z,11.30
2023-03-15T13:14:07.411Z,15.20
2023-03-15T13:16:50.996Z,20.80
2023-03-15T13:19:26.229Z,14.00
2023-03-15T13:22:02.053Z,32.50
2023-03-15T13:24:53.455Z,13.70
2023-03-15T13:27:50.347Z,13.30
2023-03-15T13:30:33.490Z,17.50
2023-03-15T13:33:28.298Z,14.50
2023-03-15T13:36:01.496Z,17.30
2023-03-15T13:38:40.621Z,13.80
2023-03-15T13:41:28.118Z,13.20
2023-03-15T13:44:00.667Z,17.00
2023-03-15T13:46:30.939Z,12.10
2023-03-15T13:49:03.444Z,12.60
2023-03-15T13:51:37.642Z,16.70
2023-03-15T13:54:16.653Z,15.10
2023-03-15T13:56:57.535Z,16.20
2023-03-15T13:59:40.833Z,14.60
2023-03-15T14:02:33.925Z,13.40
2023-03-15T14:05:09.485Z,15.00
2023-03-15T14:07:39.043Z,16.20
2023-03-15T14:10:23.172Z,17.70
2023-03-15T14:12:52.978Z,21.90
2023-03-15T14:15:31.256Z,19.50
2023-03-15T14:18:02.214Z,22.00
2023-03-15T14:20:40.928Z,27.00
2023-03-15T14:23:14.437Z,27.50
2023-03-15T14:25:43.448Z,30.60
2023-03-15T14:28:15.920Z,28.70
2023-03-15T14:30:54.522Z,25.40
2023-03-15T14:33:32.844Z,22.50
2023-03-15T14:36:04.215Z,24.20
2023-03-15T14:38:38.242Z,20.70
2023-03-15T14:41:27.722Z,18.80
2023-03-15T14:43:56.049Z,18.30
2023-03-15T14:46:25.130Z,17.60
2023-03-15T14:48:53.449Z,20.70
2023-03-15T14:51:23.662Z,16.00
2023-03-15T14:53:56.198Z,16.90
2023-03-15T14:56:26.021Z,12.90
2023-03-15T14:58:55.690Z,16.40
2023-03-15T15:01:27.293Z,15.10
2023-03-15T15:04:02.085Z,18.40
2023-03-15T15:06:38.058Z,22.00
2023-03-15T15:09:06.942Z,21.30
2023-03-15T15:11:35.588Z,18.10
2023-03-15T15:14:14.886Z,16.60
2023-03-15T15:16:44.258Z,13.90
2023-03-15T15:19:13.075Z,13.00
2023-03-15T15:21:44.484Z,40.40
2023-03-15T15:24:18.921Z,14.20
2023-03-15T15:26:47.415Z,13.70
2023-03-15T15:29:19.172Z,14.20
2023-03-15T15:31:48.417Z,14.20
2023-03-15T15:34:17.627Z,13.00
2023-03-15T15:36:46.457Z,14.90
2023-03-15T15:39:23.961Z,15.90
2023-03-15T15:41:53.798Z,16.00
2023-03-15T15:44:25.703Z,13.20
2023-03-15T15:46:54.047Z,14.10
2023-03-15T15:49:22.597Z,18.00
2023-03-15T15:51:51.510Z,15.00
2023-03-15T15:54:24.994Z,14.10
2023-03-15T15:57:01.231Z,32.70
2023-03-15T15:59:30.788Z,18.40
2023-03-15T16:02:01.914Z,16.10
2023-03-15T16:04:33.159Z,12.60
2023-03-15T16:07:03.826Z,14.20
2023-03-15T16:09:36.683Z,13.00
2023-03-15T16:12:12.200Z,15.60
2023-03-15T16:14:41.905Z,13.70
2023-03-15T16:17:14.782Z,14.30
2023-03-15T16:19:43.509Z,12.60
2023-03-15T16:22:11.618Z,17.10
2023-03-15T16:24:45.924Z,11.60
2023-03-15T16:27:17.642Z,13.40
2023-03-15T16:29:47.860Z,12.80
2023-03-15T16:32:37.242Z,14.20
2023-03-15T16:35:15.831Z,13.10
2023-03-15T16:37:46.365Z,14.10
2023-03-15T16:40:28.107Z,11.90
2023-03-15T16:42:56.792Z,12.90
2023-03-15T16:45:25.282Z,13.30
2023-03-15T16:47:53.888Z,13.60
2023-03-15T16:50:22.678Z,12.30
2023-03-15T16:52:55.116Z,13.90
2023-03-15T16:55:31.911Z,9.90
2023-03-15T16:58:12.067Z,13.40
2023-03-15T17:00:44.961Z,11.80
2023-03-15T17:03:13.998Z,14.50
2023-03-15T17:05:46.001Z,10.80
2023-03-15T17:08:19.238Z,12.90
2023-03-15T17:10:50.531Z,10.20
2023-03-15T17:13:29.913Z,10.50
2023-03-15T17:15:59.799Z,11.40
2023-03-15T17:18:30.210Z,11.10
2023-03-15T17:20:58.339Z,14.70
2023-03-15T17:23:26.435Z,12.40
2023-03-15T17:25:55.976Z,13.00
2023-03-15T17:28:24.376Z,12.30
2023-03-15T17:30:59.599Z,11.60
2023-03-15T17:33:37.229Z,11.50
2023-03-15T17:36:10.229Z,13.10
2023-03-15T17:38:42.520Z,14.90
2023-03-15T17:41:40.669Z,12.70
2023-03-15T17:44:10.631Z,11.60
2023-03-15T17:46:38.916Z,11.70
2023-03-15T17:49:09.206Z,10.20
2023-03-15T17:51:38.489Z,10.90
2023-03-15T17:54:14.384Z,13.70
2023-03-15T17:56:44.566Z,13.30
2023-03-15T17:59:13.386Z,11.00
2023-03-15T18:01:45.760Z,10.40
2023-03-15T18:04:14.867Z,9.30
2023-03-15T18:06:43.308Z,11.90
2023-03-15T18:09:13.201Z,15.60
2023-03-15T18:11:43.184Z,9.80
2023-03-15T18:14:18.210Z,9.60
2023-03-15T18:16:46.515Z,13.80
2023-03-15T18:19:15.510Z,10.00
2023-03-15T18:21:43.704Z,8.20
2023-03-15T18:24:14.461Z,8.50
2023-03-15T18:26:42.624Z,9.00
2023-03-15T18:29:10.923Z,9.90
2023-03-15T18:31:41.346Z,7.90
2023-03-15T18:34:15.253Z,9.00
2023-03-15T18:36:44.062Z,12.20
2023-03-15T18:39:12.336Z,7.40
2023-03-15T18:41:40.709Z,9.70
2023-03-15T18:44:10.805Z,8.50
2023-03-15T18:46:39.140Z,7.60
2023-03-15T18:49:07.087Z,7.70
2023-03-15T18:51:37.826Z,10.50
2023-03-15T18:54:06.461Z,9.10
2023-03-15T18:56:34.830Z,9.10
2023-03-15T18:59:03.718Z,8.20
2023-03-15T19:01:32.640Z,8.60
2023-03-15T19:04:00.712Z,5.90
2023-03-15T19:06:31.305Z,8.10
2023-03-15T19:09:01.875Z,5.90
2023-03-15T19:11:31.859Z,6.90
2023-03-15T19:14:00.254Z,6.10
2023-03-15T19:16:30.927Z,7.50
2023-03-15T19:18:59.235Z,5.40
2023-03-15T19:21:28.285Z,6.50
2023-03-15T19:23:58.132Z,6.30
2023-03-15T19:26:26.365Z,4.40
2023-03-15T19:28:56.509Z,3.90
2023-03-15T19:31:24.799Z,3.50
2023-03-15T19:33:53.900Z,4.30
2023-03-15T19:36:22.398Z,4.80
2023-03-15T19:38:50.907Z,3.90
2023-03-15T19:41:19.781Z,4.00
2023-03-15T19:43:47.951Z,2.50
2023-03-15T19:46:17.473Z,3.40
2023-03-15T19:48:47.062Z,3.00
2023-03-15T19:51:16.500Z,3.10
2023-03-15T19:53:44.533Z,3.60
2023-03-15T19:56:13.040Z,4.50
2023-03-15T19:58:41.668Z,3.90
2023-03-15T20:01:09.885Z,4.40
2023-03-15T20:03:39.464Z,3.40
2023-03-15T20:06:10.336Z,4.40
2023-03-15T20:08:39.414Z,2.70
2023-03-15T20:11:08.336Z,3.20
2023-03-15T20:13:37.207Z,4.30
2023-03-15T20:16:06.068Z,3.80
2023-03-15T20:18:34.104Z,3.00
2023-03-15T20:21:02.201Z,2.40
2023-03-15T20:23:33.485Z,3.00
2023-03-15T20:26:10.994Z,3.00
2023-03-15T20:28:40.452Z,3.20
2023-03-15T20:31:11.248Z,3.30
2023-03-15T20:33:40.028Z,3.70
2023-03-15T20:36:08.201Z,5.20
2023-03-15T20:38:37.410Z,4.30
2023-03-15T20:41:06.953Z,3.60
2023-03-15T20:43:37.918Z,3.50
2023-03-15T20:46:06.771Z,4.40
2023-03-15T20:48:38.292Z,3.30
2023-03-15T20:51:06.836Z,2.10
2023-03-15T20:53:36.599Z,2.80
2023-03-15T20:56:05.505Z,2.30
2023-03-15T20:58:33.583Z,2.10
2023-03-15T21:01:03.585Z,3.50
2023-03-15T21:03:34.103Z,3.90
2023-03-15T21:06:04.705Z,2.10
2023-03-15T21:08:34.905Z,2.30
2023-03-15T21:11:11.132Z,2.00
2023-03-15T21:13:40.125Z,2.00
2023-03-15T21:16:13.011Z,2.10
2023-03-15T21:18:45.652Z,2.50
2023-03-15T21:21:15.197Z,2.00
2023-03-15T21:23:43.199Z,2.30
2023-03-15T21:26:13.642Z,2.20
2023-03-15T21:28:42.383Z,2.60
2023-03-15T21:31:12.633Z,2.10
2023-03-15T21:33:41.024Z,1.90
2023-03-15T21:36:09.468Z,2.10
2023-03-15T21:38:37.702Z,2.00
2023-03-15T21:41:09.201Z,2.70
2023-03-15T21:43:38.714Z,2.60
2023-03-15T21:46:10.874Z,1.80
2023-03-15T21:48:39.112Z,2.50
2023-03-15T21:51:08.367Z,2.70
2023-03-15T21:53:37.121Z,2.70
2023-03-15T21:56:05.431Z,2.20
2023-03-15T21:58:33.467Z,3.30
2023-03-15T22:01:08.131Z,2.20
2023-03-15T22:03:36.800Z,2.80
2023-03-15T22:06:05.268Z,2.30
2023-03-15T22:08:36.929Z,2.80
2023-03-15T22:11:05.217Z,3.80
2023-03-15T22:13:33.438Z,1.60
2023-03-15T22:16:01.596Z,2.90
2023-03-15T22:18:30.594Z,2.30
2023-03-15T22:20:58.619Z,2.60
2023-03-15T22:23:27.404Z,2.40
2023-03-15T22:25:57.157Z,2.70
2023-03-15T22:28:25.308Z,2.20
2023-03-15T22:30:53.744Z,2.40
2023-03-15T22:33:22.958Z,3.10
2023-03-15T22:35:58.797Z,2.70
2023-03-15T22:38:26.954Z,2.90
2023-03-15T22:41:03.643Z,2.40
2023-03-15T22:43:31.628Z,3.00
2023-03-15T22:45:59.765Z,2.40
2023-03-15T22:48:28.368Z,3.00
2023-03-15T22:51:01.053Z,2.40
2023-03-15T22:53:29.896Z,2.10
2023-03-15T22:55:58.408Z,2.20
2023-03-15T22:58:26.961Z,2.00
2023-03-15T23:00:55.267Z,2.30
2023-03-15T23:03:25.059Z,3.40
2023-03-15T23:05:54.795Z,2.00
2023-03-15T23:08:24.238Z,3.70
2023-03-15T23:10:52.212Z,2.30
2023-03-15T23:13:20.239Z,2.40
2023-03-15T23:15:48.486Z,4.70
2023-03-15T23:18:16.442Z,2.60
2023-03-15T23:20:44.410Z,2.20
2023-03-15T23:23:12.468Z,2.20
2023-03-15T23:25:40.566Z,2.10
2023-03-15T23:28:09.132Z,3.00
2023-03-15T23:30:39.910Z,2.10
2023-03-15T23:33:08.837Z,4.10
2023-03-15T23:35:37.130Z,2.10
2023-03-15T23:38:05.125Z,1.70
2023-03-15T23:40:33.515Z,1.90
2023-03-15T23:43:01.613Z,2.20
2023-03-15T23:45:30.246Z,2.30
2023-03-15T23:47:58.925Z,2.20
2023-03-15T23:50:27.408Z,2.90
2023-03-15T23:52:56.312Z,2.20
2023-03-15T23:55:25.048Z,2.50
2023-03-15T23:57:53.146Z,2.80
